sensor_id;sensor_type;location;lat;lon;timestamp;temperature;humidity
67862;DHT22;54665;51.462;6.698;2023-08-21T00:01:48;18.88;84.89
67862;DHT22;54665;51.462;6.698;2023-08-21T00:03:48;18.83;84.50
67862;DHT22;54665;51.462;6.698;2023-08-21T00:05:48;18.85;84.18
67862;DHT22;54665;51.462;6.698;2023-08-21T00:07:48;19.07;82.34
67862;DHT22;54665;51.462;6.698;2023-08-21T00:09:49;19.19;81.71
67862;DHT22;54665;51.462;6.698;2023-08-21T00:11:49;19.23;80.35
67862;DHT22;54665;51.462;6.698;2023-08-21T00:13:50;19.35;79.73
67862;DHT22;54665;51.462;6.698;2023-08-21T00:15:50;19.46;78.81
67862;DHT22;54665;51.462;6.698;2023-08-21T00:17:50;19.48;78.83
67862;DHT22;54665;51.462;6.698;2023-08-21T00:19:50;19.50;79.00
67862;DHT22;54665;51.462;6.698;2023-08-21T00:21:51;19.58;78.24
67862;DHT22;54665;51.462;6.698;2023-08-21T00:23:51;19.60;78.09
67862;DHT22;54665;51.462;6.698;2023-08-21T00:25:51;19.65;77.31
67862;DHT22;54665;51.462;6.698;2023-08-21T00:27:52;19.71;77.05
67862;DHT22;54665;51.462;6.698;2023-08-21T00:29:52;19.77;76.14
67862;DHT22;54665;51.462;6.698;2023-08-21T00:31:52;19.83;76.19
67862;DHT22;54665;51.462;6.698;2023-08-21T00:33:55;19.74;76.02
67862;DHT22;54665;51.462;6.698;2023-08-21T00:35:56;19.79;75.50
67862;DHT22;54665;51.462;6.698;2023-08-21T00:37:57;19.78;75.80
67862;DHT22;54665;51.462;6.698;2023-08-21T00:39:58;19.77;75.62
67862;DHT22;54665;51.462;6.698;2023-08-21T00:41:58;19.85;75.34
67862;DHT22;54665;51.462;6.698;2023-08-21T00:43:59;19.83;75.21
67862;DHT22;54665;51.462;6.698;2023-08-21T00:46:00;19.72;75.44
67862;DHT22;54665;51.462;6.698;2023-08-21T00:48:00;19.65;75.28
67862;DHT22;54665;51.462;6.698;2023-08-21T00:50:01;19.72;75.32
67862;DHT22;54665;51.462;6.698;2023-08-21T00:52:02;19.77;75.38
67862;DHT22;54665;51.462;6.698;2023-08-21T00:54:02;19.68;75.33
67862;DHT22;54665;51.462;6.698;2023-08-21T00:56:02;19.61;75.55
67862;DHT22;54665;51.462;6.698;2023-08-21T00:58:04;19.57;75.65
67862;DHT22;54665;51.462;6.698;2023-08-21T01:00:06;19.58;75.97
67862;DHT22;54665;51.462;6.698;2023-08-21T01:02:06;19.62;75.68
67862;DHT22;54665;51.462;6.698;2023-08-21T01:04:06;19.70;75.49
67862;DHT22;54665;51.462;6.698;2023-08-21T01:06:07;19.57;75.58
67862;DHT22;54665;51.462;6.698;2023-08-21T01:08:15;19.48;76.36
67862;DHT22;54665;51.462;6.698;2023-08-21T01:11:06;19.50;76.04
67862;DHT22;54665;51.462;6.698;2023-08-21T01:15:28;19.40;76.61
67862;DHT22;54665;51.462;6.698;2023-08-21T01:17:29;19.32;76.86
67862;DHT22;54665;51.462;6.698;2023-08-21T01:19:31;19.37;76.90
67862;DHT22;54665;51.462;6.698;2023-08-21T01:21:31;19.48;76.49
67862;DHT22;54665;51.462;6.698;2023-08-21T01:23:35;19.35;77.75
67862;DHT22;54665;51.462;6.698;2023-08-21T01:25:35;19.24;77.61
67862;DHT22;54665;51.462;6.698;2023-08-21T01:27:36;19.11;78.99
67862;DHT22;54665;51.462;6.698;2023-08-21T01:29:37;19.04;78.51
67862;DHT22;54665;51.462;6.698;2023-08-21T01:31:37;19.04;78.55
67862;DHT22;54665;51.462;6.698;2023-08-21T01:33:46;18.98;78.16
67862;DHT22;54665;51.462;6.698;2023-08-21T01:35:48;19.09;77.12
67862;DHT22;54665;51.462;6.698;2023-08-21T01:37:49;19.07;77.96
67862;DHT22;54665;51.462;6.698;2023-08-21T01:39:49;19.02;78.63
67862;DHT22;54665;51.462;6.698;2023-08-21T01:41:49;18.90;78.52
67862;DHT22;54665;51.462;6.698;2023-08-21T01:43:50;18.85;78.80
67862;DHT22;54665;51.462;6.698;2023-08-21T01:45:50;18.75;79.39
67862;DHT22;54665;51.462;6.698;2023-08-21T01:47:51;18.72;79.47
67862;DHT22;54665;51.462;6.698;2023-08-21T01:49:51;18.65;79.51
67862;DHT22;54665;51.462;6.698;2023-08-21T01:51:52;18.66;79.55
67862;DHT22;54665;51.462;6.698;2023-08-21T01:53:52;18.69;79.27
67862;DHT22;54665;51.462;6.698;2023-08-21T01:55:52;18.60;80.00
67862;DHT22;54665;51.462;6.698;2023-08-21T01:57:53;18.53;80.28
67862;DHT22;54665;51.462;6.698;2023-08-21T01:59:53;18.44;80.40
67862;DHT22;54665;51.462;6.698;2023-08-21T02:01:53;18.58;80.00
67862;DHT22;54665;51.462;6.698;2023-08-21T02:03:53;18.69;79.35
67862;DHT22;54665;51.462;6.698;2023-08-21T02:05:57;18.73;79.40
67862;DHT22;54665;51.462;6.698;2023-08-21T02:07:57;18.73;79.38
67862;DHT22;54665;51.462;6.698;2023-08-21T02:09:58;18.76;79.16
67862;DHT22;54665;51.462;6.698;2023-08-21T02:11:58;18.76;79.19
67862;DHT22;54665;51.462;6.698;2023-08-21T02:13:58;18.75;79.11
67862;DHT22;54665;51.462;6.698;2023-08-21T02:15:59;18.82;78.94
67862;DHT22;54665;51.462;6.698;2023-08-21T02:18:00;18.90;78.00
67862;DHT22;54665;51.462;6.698;2023-08-21T02:20:00;18.95;77.98
67862;DHT22;54665;51.462;6.698;2023-08-21T02:22:01;19.04;77.73
67862;DHT22;54665;51.462;6.698;2023-08-21T02:24:01;19.07;77.25
67862;DHT22;54665;51.462;6.698;2023-08-21T02:26:01;19.10;77.45
67862;DHT22;54665;51.462;6.698;2023-08-21T02:28:02;19.19;77.54
67862;DHT22;54665;51.462;6.698;2023-08-21T02:30:03;19.26;77.47
67862;DHT22;54665;51.462;6.698;2023-08-21T02:32:04;19.19;78.24
67862;DHT22;54665;51.462;6.698;2023-08-21T02:34:05;19.10;78.59
67862;DHT22;54665;51.462;6.698;2023-08-21T02:36:05;19.14;78.08
67862;DHT22;54665;51.462;6.698;2023-08-21T02:38:06;19.07;78.75
67862;DHT22;54665;51.462;6.698;2023-08-21T02:40:09;18.93;79.22
67862;DHT22;54665;51.462;6.698;2023-08-21T02:42:10;18.95;77.89
67862;DHT22;54665;51.462;6.698;2023-08-21T02:44:10;18.95;78.17
67862;DHT22;54665;51.462;6.698;2023-08-21T02:46:10;18.95;77.97
67862;DHT22;54665;51.462;6.698;2023-08-21T02:48:11;18.92;78.51
67862;DHT22;54665;51.462;6.698;2023-08-21T02:50:11;18.83;79.31
67862;DHT22;54665;51.462;6.698;2023-08-21T02:52:12;18.82;79.50
67862;DHT22;54665;51.462;6.698;2023-08-21T02:54:12;18.79;79.44
67862;DHT22;54665;51.462;6.698;2023-08-21T02:56:12;18.72;79.95
67862;DHT22;54665;51.462;6.698;2023-08-21T02:58:13;18.66;80.08
67862;DHT22;54665;51.462;6.698;2023-08-21T03:00:13;18.59;80.26
67862;DHT22;54665;51.462;6.698;2023-08-21T03:02:13;18.58;80.34
67862;DHT22;54665;51.462;6.698;2023-08-21T03:04:14;18.60;80.68
67862;DHT22;54665;51.462;6.698;2023-08-21T03:06:14;18.63;80.36
67862;DHT22;54665;51.462;6.698;2023-08-21T03:08:14;18.53;80.55
67862;DHT22;54665;51.462;6.698;2023-08-21T03:10:15;18.49;80.85
67862;DHT22;54665;51.462;6.698;2023-08-21T03:12:21;18.47;81.28
67862;DHT22;54665;51.462;6.698;2023-08-21T03:14:22;18.58;80.23
67862;DHT22;54665;51.462;6.698;2023-08-21T03:16:22;18.55;80.36
67862;DHT22;54665;51.462;6.698;2023-08-21T03:18:23;18.59;80.40
67862;DHT22;54665;51.462;6.698;2023-08-21T03:20:23;18.55;80.61
67862;DHT22;54665;51.462;6.698;2023-08-21T03:22:23;18.49;80.95
67862;DHT22;54665;51.462;6.698;2023-08-21T03:24:24;18.48;81.60
67862;DHT22;54665;51.462;6.698;2023-08-21T03:26:25;18.49;81.33
67862;DHT22;54665;51.462;6.698;2023-08-21T03:28:26;18.47;82.20
67862;DHT22;54665;51.462;6.698;2023-08-21T03:30:26;18.42;82.36
67862;DHT22;54665;51.462;6.698;2023-08-21T03:32:26;18.31;82.74
67862;DHT22;54665;51.462;6.698;2023-08-21T03:34:27;18.22;83.19
67862;DHT22;54665;51.462;6.698;2023-08-21T03:36:31;18.28;83.00
67862;DHT22;54665;51.462;6.698;2023-08-21T03:38:34;18.18;83.79
67862;DHT22;54665;51.462;6.698;2023-08-21T03:40:34;18.07;83.82
67862;DHT22;54665;51.462;6.698;2023-08-21T03:42:35;17.94;84.58
67862;DHT22;54665;51.462;6.698;2023-08-21T03:44:37;17.87;84.52
67862;DHT22;54665;51.462;6.698;2023-08-21T03:46:38;17.76;84.97
67862;DHT22;54665;51.462;6.698;2023-08-21T03:48:38;17.62;85.30
67862;DHT22;54665;51.462;6.698;2023-08-21T03:50:39;17.51;85.49
67862;DHT22;54665;51.462;6.698;2023-08-21T03:52:39;17.45;85.70
67862;DHT22;54665;51.462;6.698;2023-08-21T03:54:40;17.36;86.00
67862;DHT22;54665;51.462;6.698;2023-08-21T03:56:40;17.33;86.15
67862;DHT22;54665;51.462;6.698;2023-08-21T03:58:40;17.39;85.76
67862;DHT22;54665;51.462;6.698;2023-08-21T04:00:40;17.46;85.92
67862;DHT22;54665;51.462;6.698;2023-08-21T04:02:41;17.47;86.16
67862;DHT22;54665;51.462;6.698;2023-08-21T04:04:42;17.50;86.01
67862;DHT22;54665;51.462;6.698;2023-08-21T04:06:42;17.47;86.32
67862;DHT22;54665;51.462;6.698;2023-08-21T04:08:43;17.45;86.74
67862;DHT22;54665;51.462;6.698;2023-08-21T04:10:43;17.42;87.03
67862;DHT22;54665;51.462;6.698;2023-08-21T04:12:43;17.43;87.14
67862;DHT22;54665;51.462;6.698;2023-08-21T04:14:44;17.49;86.80
67862;DHT22;54665;51.462;6.698;2023-08-21T04:16:44;17.46;87.09
67862;DHT22;54665;51.462;6.698;2023-08-21T04:18:44;17.47;86.59
67862;DHT22;54665;51.462;6.698;2023-08-21T04:20:47;17.60;85.75
67862;DHT22;54665;51.462;6.698;2023-08-21T04:22:48;17.62;86.09
67862;DHT22;54665;51.462;6.698;2023-08-21T04:24:49;17.74;85.71
67862;DHT22;54665;51.462;6.698;2023-08-21T04:26:49;17.81;85.35
67862;DHT22;54665;51.462;6.698;2023-08-21T04:28:50;17.94;84.45
67862;DHT22;54665;51.462;6.698;2023-08-21T04:30:51;17.90;84.32
67862;DHT22;54665;51.462;6.698;2023-08-21T04:32:51;18.05;83.42
67862;DHT22;54665;51.462;6.698;2023-08-21T04:34:53;18.08;83.53
67862;DHT22;54665;51.462;6.698;2023-08-21T04:36:53;18.12;83.32
67862;DHT22;54665;51.462;6.698;2023-08-21T04:38:54;18.22;83.73
67862;DHT22;54665;51.462;6.698;2023-08-21T04:40:55;18.31;83.72
67862;DHT22;54665;51.462;6.698;2023-08-21T04:42:55;18.35;82.56
67862;DHT22;54665;51.462;6.698;2023-08-21T04:44:57;18.39;82.42
67862;DHT22;54665;51.462;6.698;2023-08-21T04:46:57;18.42;81.67
67862;DHT22;54665;51.462;6.698;2023-08-21T04:48:59;18.42;81.35
67862;DHT22;54665;51.462;6.698;2023-08-21T04:50:59;18.42;81.76
67862;DHT22;54665;51.462;6.698;2023-08-21T04:53:00;18.41;82.14
67862;DHT22;54665;51.462;6.698;2023-08-21T04:55:00;18.44;82.37
67862;DHT22;54665;51.462;6.698;2023-08-21T04:57:02;18.44;82.65
67862;DHT22;54665;51.462;6.698;2023-08-21T04:59:03;18.47;83.40
67862;DHT22;54665;51.462;6.698;2023-08-21T05:01:05;18.42;82.83
67862;DHT22;54665;51.462;6.698;2023-08-21T05:03:06;18.51;82.74
67862;DHT22;54665;51.462;6.698;2023-08-21T05:05:07;18.48;82.83
67862;DHT22;54665;51.462;6.698;2023-08-21T05:07:07;18.45;82.52
67862;DHT22;54665;51.462;6.698;2023-08-21T05:09:07;18.52;82.96
67862;DHT22;54665;51.462;6.698;2023-08-21T05:11:08;18.45;84.37
67862;DHT22;54665;51.462;6.698;2023-08-21T05:13:11;18.49;83.71
67862;DHT22;54665;51.462;6.698;2023-08-21T05:15:11;18.52;82.94
67862;DHT22;54665;51.462;6.698;2023-08-21T05:17:11;18.53;82.89
67862;DHT22;54665;51.462;6.698;2023-08-21T05:19:12;18.53;82.98
67862;DHT22;54665;51.462;6.698;2023-08-21T05:21:12;18.47;82.88
67862;DHT22;54665;51.462;6.698;2023-08-21T05:23:14;18.45;82.94
67862;DHT22;54665;51.462;6.698;2023-08-21T05:25:15;18.44;82.93
67862;DHT22;54665;51.462;6.698;2023-08-21T05:27:15;18.51;82.53
67862;DHT22;54665;51.462;6.698;2023-08-21T05:29:15;18.52;82.49
67862;DHT22;54665;51.462;6.698;2023-08-21T05:31:16;18.53;82.75
67862;DHT22;54665;51.462;6.698;2023-08-21T05:33:23;18.55;83.12
67862;DHT22;54665;51.462;6.698;2023-08-21T05:35:24;18.56;83.04
67862;DHT22;54665;51.462;6.698;2023-08-21T05:37:26;18.58;83.07
67862;DHT22;54665;51.462;6.698;2023-08-21T05:39:26;18.60;83.06
67862;DHT22;54665;51.462;6.698;2023-08-21T05:41:27;18.60;83.05
67862;DHT22;54665;51.462;6.698;2023-08-21T05:43:28;18.65;83.35
67862;DHT22;54665;51.462;6.698;2023-08-21T05:45:29;18.70;83.52
67862;DHT22;54665;51.462;6.698;2023-08-21T05:47:31;18.72;83.49
67862;DHT22;54665;51.462;6.698;2023-08-21T05:49:31;18.73;83.26
67862;DHT22;54665;51.462;6.698;2023-08-21T05:51:32;18.79;83.30
67862;DHT22;54665;51.462;6.698;2023-08-21T05:53:32;18.83;83.04
67862;DHT22;54665;51.462;6.698;2023-08-21T05:55:33;18.89;82.59
67862;DHT22;54665;51.462;6.698;2023-08-21T05:57:34;18.98;82.13
67862;DHT22;54665;51.462;6.698;2023-08-21T05:59:43;19.07;82.03
67862;DHT22;54665;51.462;6.698;2023-08-21T06:01:44;19.06;81.85
67862;DHT22;54665;51.462;6.698;2023-08-21T06:03:45;19.13;81.64
67862;DHT22;54665;51.462;6.698;2023-08-21T06:05:58;19.19;81.30
67862;DHT22;54665;51.462;6.698;2023-08-21T06:07:58;19.20;80.83
67862;DHT22;54665;51.462;6.698;2023-08-21T06:09:59;19.28;80.76
67862;DHT22;54665;51.462;6.698;2023-08-21T06:12:00;19.37;80.25
67862;DHT22;54665;51.462;6.698;2023-08-21T06:14:00;19.40;79.66
67862;DHT22;54665;51.462;6.698;2023-08-21T06:16:01;19.53;79.71
67862;DHT22;54665;51.462;6.698;2023-08-21T06:18:03;19.53;79.61
67862;DHT22;54665;51.462;6.698;2023-08-21T06:20:06;19.60;79.04
67862;DHT22;54665;51.462;6.698;2023-08-21T06:22:07;19.71;79.16
67862;DHT22;54665;51.462;6.698;2023-08-21T06:24:07;19.72;78.45
67862;DHT22;54665;51.462;6.698;2023-08-21T06:26:08;19.92;78.58
67862;DHT22;54665;51.462;6.698;2023-08-21T06:28:08;20.09;78.20
67862;DHT22;54665;51.462;6.698;2023-08-21T06:30:08;20.33;77.73
67862;DHT22;54665;51.462;6.698;2023-08-21T06:32:09;20.34;76.66
67862;DHT22;54665;51.462;6.698;2023-08-21T06:34:09;20.53;76.74
67862;DHT22;54665;51.462;6.698;2023-08-21T06:36:09;20.79;75.52
67862;DHT22;54665;51.462;6.698;2023-08-21T06:38:11;20.85;75.29
67862;DHT22;54665;51.462;6.698;2023-08-21T06:40:12;20.76;74.99
67862;DHT22;54665;51.462;6.698;2023-08-21T06:42:12;20.83;75.33
67862;DHT22;54665;51.462;6.698;2023-08-21T06:44:20;20.88;74.82
67862;DHT22;54665;51.462;6.698;2023-08-21T06:46:20;21.01;74.95
67862;DHT22;54665;51.462;6.698;2023-08-21T06:48:20;20.95;74.38
67862;DHT22;54665;51.462;6.698;2023-08-21T06:50:21;20.80;75.46
67862;DHT22;54665;51.462;6.698;2023-08-21T06:52:21;21.08;73.98
67862;DHT22;54665;51.462;6.698;2023-08-21T06:54:22;21.34;74.06
67862;DHT22;54665;51.462;6.698;2023-08-21T06:56:22;21.28;74.25
67862;DHT22;54665;51.462;6.698;2023-08-21T06:58:22;21.37;74.85
67862;DHT22;54665;51.462;6.698;2023-08-21T07:00:22;21.38;74.12
67862;DHT22;54665;51.462;6.698;2023-08-21T07:02:23;21.43;72.93
67862;DHT22;54665;51.462;6.698;2023-08-21T07:04:23;21.69;72.67
67862;DHT22;54665;51.462;6.698;2023-08-21T07:06:23;21.85;71.55
67862;DHT22;54665;51.462;6.698;2023-08-21T07:08:24;21.78;71.85
67862;DHT22;54665;51.462;6.698;2023-08-21T07:10:24;21.73;72.17
67862;DHT22;54665;51.462;6.698;2023-08-21T07:12:25;21.79;71.42
67862;DHT22;54665;51.462;6.698;2023-08-21T07:14:25;21.69;72.31
67862;DHT22;54665;51.462;6.698;2023-08-21T07:16:25;22.57;70.18
67862;DHT22;54665;51.462;6.698;2023-08-21T07:18:25;22.74;67.91
67862;DHT22;54665;51.462;6.698;2023-08-21T07:20:26;22.64;68.14
67862;DHT22;54665;51.462;6.698;2023-08-21T07:22:26;22.54;68.78
67862;DHT22;54665;51.462;6.698;2023-08-21T07:24:26;23.33;67.84
67862;DHT22;54665;51.462;6.698;2023-08-21T07:26:27;23.27;68.23
67862;DHT22;54665;51.462;6.698;2023-08-21T07:28:27;23.67;66.80
67862;DHT22;54665;51.462;6.698;2023-08-21T07:30:27;23.76;66.83
67862;DHT22;54665;51.462;6.698;2023-08-21T07:32:28;22.98;70.41
67862;DHT22;54665;51.462;6.698;2023-08-21T07:34:28;22.78;71.38
67862;DHT22;54665;51.462;6.698;2023-08-21T07:36:29;22.47;71.81
67862;DHT22;54665;51.462;6.698;2023-08-21T07:38:31;22.18;72.81
67862;DHT22;54665;51.462;6.698;2023-08-21T07:40:32;22.50;71.60
67862;DHT22;54665;51.462;6.698;2023-08-21T07:42:32;23.13;70.44
67862;DHT22;54665;51.462;6.698;2023-08-21T07:44:32;22.78;70.29
67862;DHT22;54665;51.462;6.698;2023-08-21T07:46:32;22.87;71.04
67862;DHT22;54665;51.462;6.698;2023-08-21T07:48:33;22.84;72.08
67862;DHT22;54665;51.462;6.698;2023-08-21T07:50:33;22.64;70.88
67862;DHT22;54665;51.462;6.698;2023-08-21T07:52:36;22.47;71.27
67862;DHT22;54665;51.462;6.698;2023-08-21T07:54:37;22.87;70.56
67862;DHT22;54665;51.462;6.698;2023-08-21T07:56:37;23.53;67.59
67862;DHT22;54665;51.462;6.698;2023-08-21T07:58:37;24.20;66.34
67862;DHT22;54665;51.462;6.698;2023-08-21T08:00:38;23.94;66.87
67862;DHT22;54665;51.462;6.698;2023-08-21T08:02:39;24.07;67.74
67862;DHT22;54665;51.462;6.698;2023-08-21T08:04:39;24.10;66.92
67862;DHT22;54665;51.462;6.698;2023-08-21T08:06:41;24.24;68.48
67862;DHT22;54665;51.462;6.698;2023-08-21T08:08:41;24.85;65.30
67862;DHT22;54665;51.462;6.698;2023-08-21T08:10:41;25.17;62.90
67862;DHT22;54665;51.462;6.698;2023-08-21T08:12:42;25.85;61.07
67862;DHT22;54665;51.462;6.698;2023-08-21T08:14:42;26.36;59.80
67862;DHT22;54665;51.462;6.698;2023-08-21T08:16:42;26.75;58.51
67862;DHT22;54665;51.462;6.698;2023-08-21T08:18:43;25.94;61.20
67862;DHT22;54665;51.462;6.698;2023-08-21T08:20:43;25.73;61.44
67862;DHT22;54665;51.462;6.698;2023-08-21T08:22:43;25.61;61.11
67862;DHT22;54665;51.462;6.698;2023-08-21T08:24:44;25.24;63.66
67862;DHT22;54665;51.462;6.698;2023-08-21T08:26:44;26.06;58.47
67862;DHT22;54665;51.462;6.698;2023-08-21T08:28:44;25.51;61.32
67862;DHT22;54665;51.462;6.698;2023-08-21T08:30:45;25.54;60.86
67862;DHT22;54665;51.462;6.698;2023-08-21T08:32:46;25.43;60.77
67862;DHT22;54665;51.462;6.698;2023-08-21T08:34:46;25.44;61.52
67862;DHT22;54665;51.462;6.698;2023-08-21T08:36:46;25.57;61.30
67862;DHT22;54665;51.462;6.698;2023-08-21T08:38:47;26.24;58.20
67862;DHT22;54665;51.462;6.698;2023-08-21T08:40:49;25.64;61.41
67862;DHT22;54665;51.462;6.698;2023-08-21T08:42:51;25.28;59.71
67862;DHT22;54665;51.462;6.698;2023-08-21T08:44:54;25.46;59.06
67862;DHT22;54665;51.462;6.698;2023-08-21T08:46:55;25.48;60.28
67862;DHT22;54665;51.462;6.698;2023-08-21T08:48:56;26.14;58.15
67862;DHT22;54665;51.462;6.698;2023-08-21T08:50:57;26.42;57.23
67862;DHT22;54665;51.462;6.698;2023-08-21T08:52:58;25.84;58.55
67862;DHT22;54665;51.462;6.698;2023-08-21T08:54:59;26.35;58.63
67862;DHT22;54665;51.462;6.698;2023-08-21T08:56:59;26.14;58.08
67862;DHT22;54665;51.462;6.698;2023-08-21T08:58:59;25.99;59.48
67862;DHT22;54665;51.462;6.698;2023-08-21T09:01:00;26.08;56.87
67862;DHT22;54665;51.462;6.698;2023-08-21T09:03:00;25.58;58.52
67862;DHT22;54665;51.462;6.698;2023-08-21T09:05:01;26.08;56.54
67862;DHT22;54665;51.462;6.698;2023-08-21T09:07:08;26.52;55.07
67862;DHT22;54665;51.462;6.698;2023-08-21T09:09:09;26.69;56.50
67862;DHT22;54665;51.462;6.698;2023-08-21T09:11:09;26.02;58.40
67862;DHT22;54665;51.462;6.698;2023-08-21T09:13:17;25.47;59.60
67862;DHT22;54665;51.462;6.698;2023-08-21T09:15:17;26.19;58.45
67862;DHT22;54665;51.462;6.698;2023-08-21T09:17:17;26.42;56.88
67862;DHT22;54665;51.462;6.698;2023-08-21T09:19:21;25.97;58.84
67862;DHT22;54665;51.462;6.698;2023-08-21T09:21:22;26.01;59.89
67862;DHT22;54665;51.462;6.698;2023-08-21T09:23:23;26.08;57.59
67862;DHT22;54665;51.462;6.698;2023-08-21T09:25:23;26.69;56.74
67862;DHT22;54665;51.462;6.698;2023-08-21T09:27:23;26.59;57.20
67862;DHT22;54665;51.462;6.698;2023-08-21T09:29:24;27.12;57.75
67862;DHT22;54665;51.462;6.698;2023-08-21T09:31:33;27.31;55.10
67862;DHT22;54665;51.462;6.698;2023-08-21T09:33:33;27.26;54.36
67862;DHT22;54665;51.462;6.698;2023-08-21T09:35:33;26.26;57.91
67862;DHT22;54665;51.462;6.698;2023-08-21T09:37:34;26.35;59.10
67862;DHT22;54665;51.462;6.698;2023-08-21T09:39:35;26.90;54.84
67862;DHT22;54665;51.462;6.698;2023-08-21T09:41:35;26.25;57.61
67862;DHT22;54665;51.462;6.698;2023-08-21T09:43:41;26.94;57.12
67862;DHT22;54665;51.462;6.698;2023-08-21T09:45:45;25.78;60.82
67862;DHT22;54665;51.462;6.698;2023-08-21T09:47:46;25.99;59.60
67862;DHT22;54665;51.462;6.698;2023-08-21T09:49:47;26.24;58.30
67862;DHT22;54665;51.462;6.698;2023-08-21T09:51:50;26.08;60.13
67862;DHT22;54665;51.462;6.698;2023-08-21T09:53:52;25.80;60.83
67862;DHT22;54665;51.462;6.698;2023-08-21T09:55:54;26.02;60.55
67862;DHT22;54665;51.462;6.698;2023-08-21T09:57:58;25.74;59.96
67862;DHT22;54665;51.462;6.698;2023-08-21T09:59:59;26.08;61.44
67862;DHT22;54665;51.462;6.698;2023-08-21T10:02:00;25.78;59.70
67862;DHT22;54665;51.462;6.698;2023-08-21T10:04:02;25.22;60.13
67862;DHT22;54665;51.462;6.698;2023-08-21T10:06:03;25.98;60.10
67862;DHT22;54665;51.462;6.698;2023-08-21T10:08:05;25.74;59.72
67862;DHT22;54665;51.462;6.698;2023-08-21T10:10:06;25.47;58.99
67862;DHT22;54665;51.462;6.698;2023-08-21T10:12:09;25.77;59.96
67862;DHT22;54665;51.462;6.698;2023-08-21T10:14:10;25.73;58.14
67862;DHT22;54665;51.462;6.698;2023-08-21T10:16:11;25.71;59.47
67862;DHT22;54665;51.462;6.698;2023-08-21T10:20:23;25.71;59.25
67862;DHT22;54665;51.462;6.698;2023-08-21T10:24:37;26.15;59.14
67862;DHT22;54665;51.462;6.698;2023-08-21T10:26:38;25.98;59.39
67862;DHT22;54665;51.462;6.698;2023-08-21T10:30:52;25.57;60.78
67862;DHT22;54665;51.462;6.698;2023-08-21T10:32:55;26.19;61.40
67862;DHT22;54665;51.462;6.698;2023-08-21T10:34:56;25.33;61.79
67862;DHT22;54665;51.462;6.698;2023-08-21T10:39:22;25.58;64.40
67862;DHT22;54665;51.462;6.698;2023-08-21T10:41:26;25.85;63.24
67862;DHT22;54665;51.462;6.698;2023-08-21T10:43:45;25.61;62.31
67862;DHT22;54665;51.462;6.698;2023-08-21T10:45:54;26.11;60.19
67862;DHT22;54665;51.462;6.698;2023-08-21T10:47:58;26.52;61.43
67862;DHT22;54665;51.462;6.698;2023-08-21T10:50:04;26.63;60.60
67862;DHT22;54665;51.462;6.698;2023-08-21T10:52:05;26.25;59.88
67862;DHT22;54665;51.462;6.698;2023-08-21T10:54:13;26.35;60.25
67862;DHT22;54665;51.462;6.698;2023-08-21T10:56:13;26.45;59.38
67862;DHT22;54665;51.462;6.698;2023-08-21T10:58:13;26.47;59.63
67862;DHT22;54665;51.462;6.698;2023-08-21T11:00:16;26.05;61.00
67862;DHT22;54665;51.462;6.698;2023-08-21T11:02:17;26.14;59.93
67862;DHT22;54665;51.462;6.698;2023-08-21T11:04:17;26.08;60.72
67862;DHT22;54665;51.462;6.698;2023-08-21T11:06:18;26.08;59.18
67862;DHT22;54665;51.462;6.698;2023-08-21T11:08:19;26.35;61.00
67862;DHT22;54665;51.462;6.698;2023-08-21T11:10:23;26.64;60.69
67862;DHT22;54665;51.462;6.698;2023-08-21T11:12:24;26.31;61.59
67862;DHT22;54665;51.462;6.698;2023-08-21T11:14:25;26.42;60.46
67862;DHT22;54665;51.462;6.698;2023-08-21T11:16:26;25.97;60.42
67862;DHT22;54665;51.462;6.698;2023-08-21T11:18:37;26.04;59.68
67862;DHT22;54665;51.462;6.698;2023-08-21T11:20:37;26.16;60.95
67862;DHT22;54665;51.462;6.698;2023-08-21T11:22:38;26.33;60.68
67862;DHT22;54665;51.462;6.698;2023-08-21T11:24:43;26.26;59.25
67862;DHT22;54665;51.462;6.698;2023-08-21T11:26:44;26.32;59.18
67862;DHT22;54665;51.462;6.698;2023-08-21T11:28:44;26.52;60.67
67862;DHT22;54665;51.462;6.698;2023-08-21T11:30:45;26.26;59.80
67862;DHT22;54665;51.462;6.698;2023-08-21T11:32:45;26.66;61.55
67862;DHT22;54665;51.462;6.698;2023-08-21T11:34:50;27.03;59.76
67862;DHT22;54665;51.462;6.698;2023-08-21T11:36:52;26.72;59.91
67862;DHT22;54665;51.462;6.698;2023-08-21T11:38:59;26.53;58.96
67862;DHT22;54665;51.462;6.698;2023-08-21T11:41:01;26.19;59.72
67862;DHT22;54665;51.462;6.698;2023-08-21T11:43:02;26.56;59.75
67862;DHT22;54665;51.462;6.698;2023-08-21T11:45:03;27.03;60.17
67862;DHT22;54665;51.462;6.698;2023-08-21T11:47:03;27.14;56.84
67862;DHT22;54665;51.462;6.698;2023-08-21T11:49:04;26.83;58.33
67862;DHT22;54665;51.462;6.698;2023-08-21T11:51:04;26.69;59.20
67862;DHT22;54665;51.462;6.698;2023-08-21T11:53:05;26.70;59.73
67862;DHT22;54665;51.462;6.698;2023-08-21T11:55:09;26.55;57.80
67862;DHT22;54665;51.462;6.698;2023-08-21T11:57:13;26.66;59.42
67862;DHT22;54665;51.462;6.698;2023-08-21T11:59:23;26.67;60.07
67862;DHT22;54665;51.462;6.698;2023-08-21T12:01:23;26.96;58.50
67862;DHT22;54665;51.462;6.698;2023-08-21T12:03:24;26.47;57.89
67862;DHT22;54665;51.462;6.698;2023-08-21T12:05:25;27.39;59.30
67862;DHT22;54665;51.462;6.698;2023-08-21T12:07:26;26.83;59.65
67862;DHT22;54665;51.462;6.698;2023-08-21T12:09:26;26.77;58.65
67862;DHT22;54665;51.462;6.698;2023-08-21T12:11:26;27.10;59.56
67862;DHT22;54665;51.462;6.698;2023-08-21T12:13:27;26.98;57.85
67862;DHT22;54665;51.462;6.698;2023-08-21T12:15:27;27.49;59.02
67862;DHT22;54665;51.462;6.698;2023-08-21T12:17:28;27.28;58.49
67862;DHT22;54665;51.462;6.698;2023-08-21T12:19:28;26.76;58.40
67862;DHT22;54665;51.462;6.698;2023-08-21T12:21:28;27.07;60.17
67862;DHT22;54665;51.462;6.698;2023-08-21T12:23:29;27.03;58.42
67862;DHT22;54665;51.462;6.698;2023-08-21T12:25:29;26.79;58.61
67862;DHT22;54665;51.462;6.698;2023-08-21T12:27:30;26.88;58.84
67862;DHT22;54665;51.462;6.698;2023-08-21T12:29:31;26.55;59.76
67862;DHT22;54665;51.462;6.698;2023-08-21T12:31:31;26.75;57.87
67862;DHT22;54665;51.462;6.698;2023-08-21T12:33:31;27.07;58.33
67862;DHT22;54665;51.462;6.698;2023-08-21T12:35:31;26.94;58.31
67862;DHT22;54665;51.462;6.698;2023-08-21T12:37:32;27.44;58.15
67862;DHT22;54665;51.462;6.698;2023-08-21T12:39:32;27.26;57.55
67862;DHT22;54665;51.462;6.698;2023-08-21T12:41:33;27.01;58.42
67862;DHT22;54665;51.462;6.698;2023-08-21T12:43:33;26.32;57.95
67862;DHT22;54665;51.462;6.698;2023-08-21T12:45:35;26.45;57.97
67862;DHT22;54665;51.462;6.698;2023-08-21T12:47:36;26.40;58.68
67862;DHT22;54665;51.462;6.698;2023-08-21T12:49:36;26.82;59.27
67862;DHT22;54665;51.462;6.698;2023-08-21T12:51:36;26.69;58.56
67862;DHT22;54665;51.462;6.698;2023-08-21T12:53:37;26.93;58.75
67862;DHT22;54665;51.462;6.698;2023-08-21T12:55:37;26.72;60.10
67862;DHT22;54665;51.462;6.698;2023-08-21T12:57:37;27.18;56.84